KFYV/FYV METAR and TAF weather

Enter ICAO airport designator
Station Type Date Time Source
KFYV METAR 2018/12/13 19:53 UTC NOAA

KFYV 131953Z 00000KT 10SM BKN016 OVC060 13/12 A2979 RMK AO2 RAE38 SLP085 P0001 T01330117


Station Type Date Time Source
KFYV Decoded METAR 2018/12/13 19:53 UTC NOAA

FAYETTEVILLE DRAKE FIELD, AR, United States (KFYV) 36-00N 94-10W 379M
Dec 13, 2018 - 02:53 PM EST / 2018.12.13 1953 UTC
Wind: Calm:0
Visibility: 10 mile(s):0
Sky conditions: overcast
Precipitation last hour: 0.01 inches
Temperature: 55.9 F (13.3 C)
Dew Point: 53.1 F (11.7 C)
Relative Humidity: 90%
Pressure (altimeter): 29.79 in. Hg (1008 hPa)
ob: KFYV 131953Z 00000KT 10SM BKN016 OVC060 13/12 A2979 RMK AO2 RAE38 SLP085 P0001 T01330117
cycle: 20

Station Type Date Time Source
KFYV TAF 2018/12/13 18:22 UTC NOAA

TAF KFYV 131720Z 1318/1418 06004KT 5SM -SHRA BR SCT018 BKN026 OVC035
TEMPO 1318/1322 2SM SHRA BR OVC015
FM132200 03009KT 5SM -SHRA OVC006
FM140200 01013G23KT 4SM -SHRA OVC006


Example: see airport list